Time;durP1;ratioP1;P1;durP2;ratioP2;P2;SDS_P1;SDS_P2;PMS_P1;PMS_P2;Temp;Humidity;BMP_temperature;BMP_pressure;BME280_temperature;BME280_humidity;BME280_pressure;Samples;Min_cycle;Max_cycle;Signal;HPM_P1;HPM_P2
2023/07/21 06:21:05;;;;;;;6.00;3.90;;;;;;;21.97;53.27;99993.34;4824457;29;20994;-65
2023/07/21 06:25:06;;;;;;;7.17;3.30;;;;;;;22.12;52.94;99996.41;4802086;29;20330;-64
2023/07/21 06:42:45;;;;;;;;;;;;;;;;;;;;;
2023/07/21 06:46:03;;;;;;;7.87;3.33;;;;;;;22.33;53.22;100009.34;4776095;29;21221;-64
2023/07/21 06:49:14;;;;;;;10.57;4.50;;;;;;;22.40;53.14;100009.22;4768860;29;20293;-65
2023/07/21 06:56:19;;;;;;;10.13;4.68;;;;;;;22.67;52.72;99999.53;4634406;30;20811;-68
2023/07/21 07:03:29;;;;;;;10.45;3.38;;;;;;;22.67;51.90;99999.53;4591400;31;20236;-65
2023/07/21 07:14:30;;;;;;;6.53;3.63;;;;;;;22.66;51.94;100008.72;4590053;30;20247;-69
2023/07/21 07:17:13;;;;;;;5.17;3.20;;;;;;;22.65;51.98;100004.34;4640678;30;20229;-69
2023/07/21 07:20:40;;;;;;;5.22;3.35;;;;;;;22.67;51.99;100004.94;4621639;30;20271;-69
2023/07/21 07:31:12;;;;;;;6.43;3.00;;;;;;;22.69;51.36;100010.91;4729094;30;20711;-65
2023/07/21 07:34:10;;;;;;;4.70;2.85;;;;;;;22.72;51.22;100012.31;4719906;30;20218;-67
2023/07/21 07:40:36;;;;;;;6.05;2.90;;;;;;;22.83;50.74;100009.63;4736524;30;20223;-69
2023/07/21 07:43:20;;;;;;;5.80;2.75;;;;;;;22.88;50.67;100006.19;4754427;29;20220;-68
2023/07/21 07:46:33;;;;;;;6.75;2.72;;;;;;;22.93;50.07;100008.19;4812011;29;20642;-69
2023/07/21 07:49:53;;;;;;;5.30;3.08;;;;;;;22.94;49.99;100013.38;4784279;29;20227;-68
2023/07/21 08:17:51;;;;;;;4.43;2.53;;;;;;;23.12;47.41;100029.41;4706748;30;20279;-67
2023/07/21 08:20:49;;;;;;;8.00;2.67;;;;;;;23.11;47.48;100026.97;4807802;29;20227;-67
2023/07/21 08:31:54;;;;;;;3.25;2.17;;;;;;;23.13;47.75;100025.63;4691743;30;20677;-67
2023/07/21 08:38:17;;;;;;;7.57;2.70;;;;;;;23.21;46.88;100019.03;4699978;30;20250;-64
2023/07/21 08:41:26;;;;;;;7.95;2.67;;;;;;;23.30;46.84;100031.13;4723133;30;20704;-66
2023/07/21 08:48:07;;;;;;;7.47;2.50;;;;;;;23.36;47.12;100027.44;4666746;30;20235;-67
2023/07/21 08:51:33;;;;;;;7.20;2.42;;;;;;;23.36;46.10;100030.13;4687296;30;20227;-65
2023/07/21 08:54:27;;;;;;;3.78;2.40;;;;;;;23.31;45.29;100029.25;4731010;30;20211;-67
2023/07/21 08:57:41;;;;;;;5.25;2.30;;;;;;;23.34;46.00;100029.56;4736248;30;20215;-67
2023/07/21 09:00:46;;;;;;;;;;;;;;;;;;;;;
2023/07/21 09:07:26;;;;;;;8.48;2.40;;;;;;;23.47;45.65;100031.16;4708712;30;20301;-67
2023/07/21 09:10:27;;;;;;;3.63;2.15;;;;;;;23.47;45.66;100031.16;4700189;30;20220;-67
2023/07/21 09:13:30;;;;;;;3.63;1.98;;;;;;;23.47;44.92;100031.16;4672632;30;20261;-66
2023/07/21 09:16:23;;;;;;;3.58;2.05;;;;;;;23.48;44.83;100028.22;4690735;30;20219;-68
2023/07/21 09:19:05;;;;;;;3.42;1.70;;;;;;;23.46;44.24;100022.22;4791860;29;20229;-66
2023/07/21 09:22:05;;;;;;;3.97;1.90;;;;;;;23.46;43.80;100027.63;4815246;29;20338;-67
2023/07/21 09:24:56;;;;;;;5.80;2.10;;;;;;;23.46;43.86;100019.50;4815244;29;20937;-67
2023/07/21 09:27:35;;;;;;;3.72;1.65;;;;;;;23.51;43.33;100016.91;4816150;29;20296;-66
2023/07/21 09:31:12;;;;;;;5.07;1.83;;;;;;;23.66;43.43;100026.38;4813406;29;20232;-66
2023/07/21 09:34:28;;;;;;;5.00;2.00;;;;;;;23.79;42.99;100026.06;4812800;29;20220;-67
2023/07/21 09:40:42;;;;;;;2.95;1.52;;;;;;;23.94;41.85;100027.13;4808036;29;20224;-68
2023/07/21 09:43:56;;;;;;;4.22;1.95;;;;;;;23.97;42.10;100026.63;4805285;29;20671;-69
2023/07/21 09:46:37;;;;;;;;;;;;;;;;;;;;;
2023/07/21 09:49:21;;;;;;;3.58;2.15;;;;;;;24.10;41.80;100030.09;4762459;29;20687;-68
2023/07/21 09:52:07;;;;;;;6.07;1.42;;;;;;;24.10;41.87;100032.81;4811971;29;20284;-67
2023/07/21 09:54:47;;;;;;;2.85;1.52;;;;;;;24.09;41.69;100025.75;4812972;29;20219;-66
2023/07/21 09:57:23;;;;;;;3.55;1.98;;;;;;;24.12;41.50;100022.50;4814404;29;20242;-65
2023/07/21 09:59:58;;;;;;;4.35;1.60;;;;;;;24.07;41.30;100017.84;4813763;29;20217;-67
2023/07/21 10:02:41;;;;;;;4.18;1.70;;;;;;;24.02;41.66;100018.59;4813716;29;20311;-67
2023/07/21 10:05:13;;;;;;;7.60;1.75;;;;;;;23.94;41.33;100016.28;4810306;29;20327;-67
2023/07/21 10:07:49;;;;;;;3.75;1.50;;;;;;;23.91;41.14;100013.28;4815557;29;20215;-65
2023/07/21 10:10:28;;;;;;;5.05;1.77;;;;;;;23.93;41.14;100005.69;4815695;29;20212;-66
2023/07/21 10:16:10;;;;;;;4.75;1.60;;;;;;;24.08;41.32;100011.38;4805889;29;20230;-66
2023/07/21 10:19:07;;;;;;;4.82;1.75;;;;;;;24.20;40.14;100020.22;4814016;29;20222;-66
2023/07/21 10:21:56;;;;;;;3.47;1.35;;;;;;;24.21;39.88;100016.47;4811745;29;20233;-66
2023/07/21 10:24:32;;;;;;;7.53;1.50;;;;;;;24.23;40.19;100017.03;4806476;29;20231;-65
2023/07/21 10:27:23;;;;;;;2.92;1.67;;;;;;;24.25;40.01;100012.22;4812342;29;20224;-66
2023/07/21 10:30:37;;;;;;;;;;;;;;;;;;;;;
2023/07/21 10:33:37;;;;;;;2.92;1.60;;;;;;;24.70;38.32;100024.75;4811225;29;20893;-66
2023/07/21 10:36:30;;;;;;;4.97;1.95;;;;;;;24.67;37.74;100031.50;4813013;29;20228;-67
2023/07/21 10:53:39;;;;;;;5.15;2.10;;;;;;;24.20;40.08;100016.69;4809409;29;20753;-67
2023/07/21 10:56:34;;;;;;;;;;;;;;;;;;;;;
2023/07/21 10:59:39;;;;;;;3.85;1.45;;;;;;;24.15;39.85;100014.72;4812520;29;20224;-68
2023/07/21 11:02:35;;;;;;;3.20;1.60;;;;;;;24.15;39.77;100014.72;4814143;29;20234;-64
2023/07/21 11:06:08;;;;;;;4.68;1.70;;;;;;;24.24;39.52;100018.69;4784575;29;20714;-67
2023/07/21 11:09:11;;;;;;;2.85;1.45;;;;;;;24.36;39.66;100019.41;4807813;29;20288;-70
2023/07/21 11:12:17;;;;;;;2.88;1.50;;;;;;;24.38;39.61;100017.25;4801428;29;20223;-68
2023/07/21 11:15:09;;;;;;;;;;;;;;;;;;;;;
2023/07/21 11:18:10;;;;;;;4.68;1.60;;;;;;;24.45;39.62;100021.69;4790285;29;20631;-68
2023/07/21 11:39:19;;;;;;;4.13;1.55;;;;;;;23.99;39.73;100018.28;4785028;29;20219;-65
2023/07/21 11:42:17;;;;;;;3.42;1.60;;;;;;;24.00;39.62;100025.34;4810433;29;20250;-65
2023/07/21 11:44:59;;;;;;;3.25;1.30;;;;;;;24.03;38.80;100024.81;4812613;29;20220;-64
2023/07/21 11:47:54;;;;;;;5.00;1.60;;;;;;;24.05;39.63;100025.41;4788639;29;20230;-63
2023/07/21 11:50:25;;;;;;;6.55;1.70;;;;;;;24.06;39.59;100012.69;4807517;29;20226;-65
2023/07/21 11:53:17;;;;;;;;;;;;;;;;;;;;;
2023/07/21 11:56:08;;;;;;;4.78;1.65;;;;;;;24.06;38.58;100027.03;4813660;29;20221;-64
2023/07/21 11:58:56;;;;;;;;;;;;;;;;;;;;;
2023/07/21 12:01:51;;;;;;;3.88;1.48;;;;;;;23.96;37.72;100024.16;4790396;29;20581;-63
2023/07/21 12:04:29;;;;;;;8.20;1.48;;;;;;;23.94;38.09;100029.00;4812172;29;20273;-64
2023/07/21 12:07:03;;;;;;;2.88;1.30;;;;;;;23.87;38.08;100037.28;4813180;29;20208;-64
2023/07/21 12:09:55;;;;;;;5.57;1.48;;;;;;;23.81;37.70;100037.47;4812408;29;20231;-64
2023/07/21 12:12:42;;;;;;;4.13;1.70;;;;;;;23.79;38.00;100039.59;4802264;29;20224;-65
2023/07/21 12:15:23;;;;;;;3.40;1.60;;;;;;;23.71;38.15;100046.22;4787272;29;20306;-65
2023/07/21 12:18:16;;;;;;;2.63;1.30;;;;;;;23.68;38.44;100043.19;4791472;29;20608;-65
2023/07/21 12:21:23;;;;;;;3.53;1.30;;;;;;;23.63;38.48;100043.94;4789679;29;20245;-65
2023/07/21 12:24:16;;;;;;;11.68;2.88;;;;;;;23.58;38.84;100044.63;4793249;29;20347;-65
2023/07/21 12:26:47;;;;;;;5.72;2.00;;;;;;;23.53;39.06;100055.38;4795340;29;20217;-65
2023/07/21 12:29:26;;;;;;;4.00;1.80;;;;;;;23.48;39.43;100054.44;4792705;29;20228;-65
2023/07/21 12:32:43;;;;;;;5.47;2.00;;;;;;;23.47;40.59;100066.34;4794208;29;20219;-65
2023/07/21 12:35:13;;;;;;;3.72;1.70;;;;;;;23.42;41.09;100064.34;4791868;29;20302;-65
2023/07/21 12:37:44;;;;;;;4.30;1.50;;;;;;;23.40;41.18;100066.44;4793415;29;20245;-64
2023/07/21 12:40:17;;;;;;;3.97;1.50;;;;;;;23.40;41.57;100063.75;4786078;29;20228;-64
2023/07/21 12:42:53;;;;;;;4.25;1.70;;;;;;;23.36;41.04;100073.44;4794926;29;20301;-64
2023/07/21 12:45:34;;;;;;;2.33;1.38;;;;;;;23.33;41.12;100078.47;4798129;29;20220;-64
2023/07/21 12:48:19;;;;;;;4.20;1.70;;;;;;;23.27;42.43;100069.47;4797037;29;20213;-64
2023/07/21 12:50:50;;;;;;;3.10;1.58;;;;;;;23.19;43.36;100072.53;4795679;29;20252;-66
2023/07/21 12:53:23;;;;;;;7.25;1.77;;;;;;;23.18;43.33;100082.53;4796820;29;20216;-65
2023/07/21 12:56:07;;;;;;;2.97;1.50;;;;;;;23.13;43.46;100078.94;4778271;29;20237;-66
2023/07/21 12:59:12;;;;;;;6.80;2.17;;;;;;;23.10;42.99;100082.09;4794796;29;20600;-65
2023/07/21 13:02:05;;;;;;;3.03;1.55;;;;;;;23.07;42.15;100085.25;4797528;29;20235;-64
2023/07/21 13:05:11;;;;;;;3.80;1.48;;;;;;;23.03;42.57;100095.75;4797123;29;20245;-65
2023/07/21 13:07:48;;;;;;;2.50;1.20;;;;;;;22.97;42.93;100102.09;4790058;29;20312;-64
2023/07/21 13:10:26;;;;;;;6.03;1.70;;;;;;;22.94;44.05;100099.88;4790807;29;20220;-66
2023/07/21 13:13:15;;;;;;;4.95;1.52;;;;;;;22.95;44.80;100103.41;4797321;29;20226;-68
2023/07/21 13:15:47;;;;;;;7.50;1.63;;;;;;;22.93;46.03;100116.34;4814448;29;20212;-65
2023/07/21 13:18:27;;;;;;;7.35;2.00;;;;;;;22.91;47.55;100113.88;4814799;29;20893;-65
2023/07/21 13:20:58;;;;;;;7.72;1.67;;;;;;;22.87;48.39;100112.69;4814512;29;21119;-64
2023/07/21 13:23:29;;;;;;;5.90;1.80;;;;;;;22.80;48.13;100106.59;4815708;29;20760;-64
2023/07/21 13:26:04;;;;;;;16.58;4.50;;;;;;;22.78;49.09;100122.25;4815629;29;20213;-65
2023/07/21 13:28:52;;;;;;;4.57;2.10;;;;;;;22.75;50.02;100120.00;4811678;29;20217;-65
2023/07/21 13:31:28;;;;;;;3.72;1.88;;;;;;;22.64;49.13;100118.91;4813302;29;20662;-65
2023/07/21 13:34:19;;;;;;;7.40;1.70;;;;;;;22.61;48.92;100113.97;4803361;29;20256;-65
2023/07/21 13:36:53;;;;;;;7.30;1.70;;;;;;;22.59;48.79;100116.09;4814625;29;20216;-65
2023/07/21 13:39:55;;;;;;;8.30;1.40;;;;;;;22.62;48.61;100120.19;4810714;29;20218;-65
2023/07/21 13:42:50;;;;;;;3.25;1.60;;;;;;;22.61;48.18;100124.78;4804412;29;20224;-66
2023/07/21 13:45:52;;;;;;;2.40;1.40;;;;;;;22.58;48.36;100125.25;4813001;29;20254;-64
2023/07/21 13:52:34;;;;;;;5.55;1.70;;;;;;;22.54;49.12;100124.06;4796420;29;20216;-65
2023/07/21 13:55:31;;;;;;;;;;;;;;;;;;;;;
2023/07/21 13:58:17;;;;;;;3.20;1.48;;;;;;;22.57;48.74;100118.22;4813310;29;20283;-64
2023/07/21 14:01:25;;;;;;;5.05;1.70;;;;;;;22.61;48.83;100119.38;4814689;29;20278;-64
2023/07/21 14:04:23;;;;;;;2.88;1.50;;;;;;;22.64;48.77;100107.28;4811909;29;20236;-64
2023/07/21 14:07:20;;;;;;;6.60;1.70;;;;;;;22.69;47.83;100121.72;4808332;29;20675;-63
2023/07/21 14:09:58;;;;;;;3.70;1.77;;;;;;;22.78;47.52;100116.84;4813214;29;20243;-63
2023/07/21 14:12:46;;;;;;;3.75;1.88;;;;;;;22.83;48.42;100125.88;4812938;29;20212;-66
2023/07/21 14:18:11;;;;;;;3.05;1.65;;;;;;;22.94;48.00;100121.53;4814038;29;20291;-65
2023/07/21 14:20:42;;;;;;;4.22;1.83;;;;;;;23.07;47.93;100117.72;4814173;29;20667;-63
2023/07/21 14:23:16;;;;;;;5.10;2.20;;;;;;;23.17;46.75;100112.53;4813394;29;20294;-63
2023/07/21 14:25:52;;;;;;;3.85;2.20;;;;;;;23.29;46.07;100110.63;4812196;29;20239;-64
2023/07/21 14:28:23;;;;;;;4.78;1.83;;;;;;;23.32;45.89;100112.81;4813079;29;20625;-64
2023/07/21 14:30:56;;;;;;;5.25;2.10;;;;;;;23.34;45.57;100104.47;4813033;29;20234;-65
2023/07/21 14:33:57;;;;;;;6.40;2.28;;;;;;;23.39;45.46;100097.31;4809452;29;20246;-64
2023/07/21 14:36:39;;;;;;;6.10;2.33;;;;;;;23.38;45.42;100092.94;4811556;29;20220;-64
2023/07/21 14:39:12;;;;;;;3.35;1.77;;;;;;;23.41;45.22;100097.84;4813454;29;20246;-65
2023/07/21 14:42:06;;;;;;;3.78;1.88;;;;;;;23.40;46.42;100095.41;4814786;29;20223;-64
2023/07/21 14:48:20;;;;;;;5.55;2.10;;;;;;;23.24;49.70;100110.50;4762728;29;20216;-64
2023/07/21 14:50:52;;;;;;;3.03;1.77;;;;;;;23.16;49.98;100113.59;4812185;29;20221;-64
2023/07/21 14:53:42;;;;;;;4.18;1.80;;;;;;;23.11;50.44;100110.78;4810845;29;20312;-64
2023/07/21 14:56:16;;;;;;;4.25;1.92;;;;;;;23.09;50.54;100115.59;4814066;29;20674;-65
2023/07/21 14:58:49;;;;;;;3.83;1.85;;;;;;;23.17;50.20;100117.94;4812138;29;20300;-64
2023/07/21 15:01:19;;;;;;;5.15;1.95;;;;;;;23.20;49.91;100106.66;4811018;29;20219;-64
2023/07/21 15:03:50;;;;;;;5.90;2.10;;;;;;;23.22;49.75;100101.81;4813592;29;20675;-64
2023/07/21 15:06:19;;;;;;;5.25;1.63;;;;;;;23.25;49.20;100109.44;4811867;29;20616;-64
2023/07/21 15:08:49;;;;;;;5.57;1.52;;;;;;;23.33;49.33;100108.25;4812997;29;20208;-65
2023/07/21 15:11:21;;;;;;;5.65;2.08;;;;;;;23.38;49.23;100106.47;4813245;29;20243;-64
2023/07/21 15:13:51;;;;;;;2.97;1.67;;;;;;;23.38;48.92;100102.94;4811203;29;20261;-65
2023/07/21 15:16:23;;;;;;;3.15;1.95;;;;;;;23.41;49.34;100108.69;4812378;29;20631;-65
2023/07/21 15:23:02;;;;;;;2.58;1.33;;;;;;;23.32;48.71;100109.31;4754983;30;20735;-65
2023/07/21 15:25:42;;;;;;;3.30;1.95;;;;;;;23.30;49.41;100106.88;4759848;29;20620;-65
2023/07/21 15:28:48;;;;;;;4.93;2.15;;;;;;;23.29;49.24;100102.50;4788186;29;20220;-66
2023/07/21 15:31:24;;;;;;;3.50;1.63;;;;;;;23.34;48.53;100105.31;4810615;29;20337;-65
2023/07/21 15:33:55;;;;;;;3.20;1.85;;;;;;;23.42;47.62;100107.63;4814872;29;20761;-65
2023/07/21 15:36:28;;;;;;;4.05;1.90;;;;;;;23.47;47.01;100110.44;4815513;29;20262;-64
2023/07/21 15:39:03;;;;;;;2.78;1.67;;;;;;;23.48;46.32;100097.75;4809725;29;20754;-65
2023/07/21 15:41:49;;;;;;;3.35;1.73;;;;;;;23.48;45.80;100098.56;4810693;29;20700;-64
2023/07/21 15:44:23;;;;;;;4.25;1.60;;;;;;;23.51;45.70;100106.22;4811520;29;20216;-64
2023/07/21 15:46:54;;;;;;;4.10;1.63;;;;;;;23.49;45.60;100094.81;4813593;29;20215;-65
2023/07/21 15:49:48;;;;;;;3.15;2.05;;;;;;;23.52;45.70;100104.34;4790015;29;20596;-64
2023/07/21 15:52:40;;;;;;;3.67;1.55;;;;;;;23.57;45.66;100104.44;4808562;29;20216;-63
2023/07/21 15:58:51;;;;;;;3.35;1.60;;;;;;;23.53;45.27;100106.81;4811070;29;20221;-63
2023/07/21 16:01:37;;;;;;;4.45;1.60;;;;;;;23.54;44.48;100108.44;4811961;29;20221;-64
2023/07/21 16:04:08;;;;;;;5.40;1.98;;;;;;;23.55;43.60;100109.28;4806539;29;20216;-64
2023/07/21 16:06:38;;;;;;;2.78;1.25;;;;;;;23.59;43.00;100107.72;4811772;29;20253;-64
2023/07/21 16:09:08;;;;;;;3.47;1.70;;;;;;;23.65;43.01;100103.22;4811905;29;20224;-65
2023/07/21 16:11:38;;;;;;;4.57;1.90;;;;;;;23.70;43.21;100103.31;4813533;29;20662;-65
2023/07/21 16:14:23;;;;;;;2.88;1.80;;;;;;;23.72;43.18;100098.47;4812195;29;20287;-64
2023/07/21 16:17:06;;;;;;;3.67;1.33;;;;;;;23.75;41.75;100104.22;4813481;29;20205;-65
2023/07/21 16:19:38;;;;;;;3.35;1.55;;;;;;;23.77;41.07;100112.09;4813448;29;20303;-65
2023/07/21 16:22:22;;;;;;;7.88;5.75;;;;;;;23.80;40.99;100114.31;4816140;29;20241;-66
2023/07/21 16:24:54;;;;;;;3.70;2.30;;;;;;;23.74;41.30;100105.31;4812060;29;20219;-68
2023/07/21 16:27:43;;;;;;;3.85;2.15;;;;;;;23.69;40.75;100109.78;4813987;29;20302;-67
2023/07/21 16:30:31;;;;;;;3.70;1.70;;;;;;;23.69;40.91;100104.38;4728643;30;21111;-67
2023/07/21 16:33:33;;;;;;;4.63;1.63;;;;;;;23.74;40.75;100109.91;4732443;29;20228;-68
2023/07/21 16:36:54;;;;;;;4.25;1.90;;;;;;;23.73;41.40;100102.84;4777983;29;20236;-68
2023/07/21 16:39:55;;;;;;;2.30;1.40;;;;;;;23.78;40.16;100102.91;4814533;29;20704;-69
2023/07/21 16:48:56;;;;;;;4.32;3.17;;;;;;;23.69;40.06;100083.53;4784209;29;20601;-68
2023/07/21 16:52:30;;;;;;;4.95;1.73;;;;;;;23.69;40.71;100085.44;4769748;29;20229;-66
2023/07/21 16:55:22;;;;;;;3.95;1.83;;;;;;;23.75;40.27;100079.06;4806033;29;20226;-68
2023/07/21 16:57:53;;;;;;;5.70;1.73;;;;;;;23.78;40.22;100082.09;4813834;29;20225;-70
2023/07/21 17:03:35;;;;;;;2.75;1.30;;;;;;;23.84;39.38;100083.81;4807376;29;20224;-69
2023/07/21 17:06:25;;;;;;;3.70;1.88;;;;;;;23.81;39.53;100089.72;4814805;29;20232;-68
2023/07/21 17:09:06;;;;;;;3.47;1.15;;;;;;;23.75;39.02;100081.75;4813141;29;20216;-68
2023/07/21 17:11:57;;;;;;;3.08;1.88;;;;;;;23.74;39.30;100080.94;4816583;29;20223;-68
2023/07/21 17:14:51;;;;;;;2.85;1.50;;;;;;;23.75;39.68;100089.88;4814505;29;20250;-70
2023/07/21 17:21:00;;;;;;;3.75;1.73;;;;;;;23.83;39.35;100089.50;4813473;29;20280;-67
2023/07/21 17:23:37;;;;;;;4.78;1.50;;;;;;;23.87;38.84;100087.91;4815319;29;21441;-68
2023/07/21 17:26:45;;;;;;;2.08;1.38;;;;;;;23.88;39.78;100092.28;4808760;29;20393;-70
2023/07/21 17:29:38;;;;;;;2.22;1.38;;;;;;;23.90;38.78;100095.56;4805829;29;20225;-67
2023/07/21 17:35:58;;;;;;;2.63;1.33;;;;;;;23.86;39.16;100091.69;4774095;29;20219;-68
2023/07/21 17:46:33;;;;;;;3.35;1.48;;;;;;;23.84;39.18;100091.09;4685393;30;20289;-68
2023/07/21 17:49:59;;;;;;;5.32;1.38;;;;;;;23.78;39.55;100092.91;4706024;30;20228;-66
2023/07/21 17:53:13;;;;;;;3.47;1.58;;;;;;;23.80;39.57;100095.38;4715960;30;20595;-67
2023/07/21 17:56:26;;;;;;;5.07;1.70;;;;;;;23.77;38.68;100098.56;4747832;30;20226;-68
2023/07/21 18:02:36;;;;;;;2.65;1.20;;;;;;;23.75;38.89;100093.38;4721818;30;20238;-67
2023/07/21 18:09:18;;;;;;;6.97;1.70;;;;;;;23.68;38.94;100108.97;4713497;30;20453;-65
2023/07/21 18:12:22;;;;;;;3.53;1.67;;;;;;;23.66;39.84;100100.25;4786548;29;20223;-68
2023/07/21 18:15:28;;;;;;;;;;;;;;;;;;;;;
2023/07/21 18:29:24;;;;;;;20.15;2.50;;;;;;;23.48;39.51;100119.38;4800601;29;20726;-66
2023/07/21 18:36:04;;;;;;;10.20;1.77;;;;;;;23.47;40.37;100126.69;4811986;29;20216;-64
2023/07/21 18:38:42;;;;;;;5.07;1.42;;;;;;;23.44;40.13;100129.03;4810497;29;20220;-66
2023/07/21 18:41:27;;;;;;;5.32;1.60;;;;;;;23.39;39.75;100129.78;4811683;29;20224;-67
2023/07/21 18:44:26;;;;;;;7.53;1.92;;;;;;;23.40;40.30;100135.97;4807465;29;20240;-65
2023/07/21 18:47:06;;;;;;;4.50;1.83;;;;;;;23.39;39.83;100142.47;4813992;29;20711;-65
2023/07/21 18:49:55;;;;;;;4.65;1.77;;;;;;;23.38;40.58;100138.94;4812954;29;20208;-65
2023/07/21 18:52:34;;;;;;;4.63;1.90;;;;;;;23.37;40.13;100145.41;4811230;29;20228;-64
2023/07/21 18:55:19;;;;;;;7.03;2.38;;;;;;;23.37;40.55;100145.41;4809631;29;20823;-64
2023/07/21 18:58:02;;;;;;;;;;;;;;;;;;;;;
2023/07/21 19:00:58;;;;;;;13.02;1.88;;;;;;;23.33;40.41;100181.28;4812402;29;20694;-65
2023/07/21 19:03:46;;;;;;;3.42;1.52;;;;;;;23.28;40.70;100192.84;4811245;29;20208;-65
2023/07/21 19:06:22;;;;;;;5.50;1.90;;;;;;;23.25;41.67;100207.66;4812709;29;20319;-64
2023/07/21 19:09:09;;;;;;;3.58;1.95;;;;;;;23.20;43.06;100212.97;4814026;29;20216;-64
2023/07/21 19:11:37;;;;;;;4.53;2.13;;;;;;;23.10;43.49;100222.72;4777049;29;20297;-63
2023/07/21 19:14:06;;;;;;;9.55;1.88;;;;;;;23.04;43.34;100227.19;4811729;29;20248;-63
2023/07/21 19:16:34;;;;;;;4.43;1.67;;;;;;;22.95;43.76;100223.22;4814327;29;20213;-64
2023/07/21 19:19:14;;;;;;;5.35;1.55;;;;;;;22.90;43.91;100242.00;4812079;29;20213;-64
2023/07/21 19:22:22;;;;;;;3.05;1.60;;;;;;;22.84;43.82;100246.47;4805286;29;20308;-64
2023/07/21 19:25:17;;;;;;;3.20;1.80;;;;;;;22.81;43.87;100249.63;4807502;29;20828;-64
2023/07/21 19:27:46;;;;;;;3.78;2.00;;;;;;;22.75;44.10;100255.97;4813221;29;20284;-63
2023/07/21 19:30:17;;;;;;;4.32;1.88;;;;;;;22.72;43.88;100261.81;4810023;29;20262;-63
2023/07/21 19:32:46;;;;;;;6.43;2.38;;;;;;;22.69;43.87;100262.25;4812546;29;20227;-63
2023/07/21 19:35:29;;;;;;;3.58;1.70;;;;;;;22.66;43.93;100268.16;4812147;29;20243;-64
2023/07/21 19:38:00;;;;;;;6.28;1.50;;;;;;;22.61;44.29;100265.28;4813548;29;20693;-63
2023/07/21 19:40:31;;;;;;;3.97;1.50;;;;;;;22.59;44.74;100278.25;4809834;29;20224;-64
2023/07/21 19:43:00;;;;;;;6.82;1.95;;;;;;;22.55;44.51;100279.75;4809979;29;20227;-65
2023/07/21 19:48:23;;;;;;;6.25;1.92;;;;;;;22.54;44.99;100286.19;4803917;29;20248;-63
2023/07/21 19:54:26;;;;;;;;;;;;;;;;;;;;;
2023/07/21 20:00:16;;;;;;;6.03;2.08;;;;;;;22.38;45.07;100309.28;4804071;29;20338;-64
2023/07/21 20:03:01;;;;;;;2.92;1.48;;;;;;;22.37;45.13;100323.03;4810525;29;20216;-64
2023/07/21 20:06:19;;;;;;;8.82;1.80;;;;;;;22.32;45.18;100315.63;4772881;29;20229;-64
2023/07/21 20:09:15;;;;;;;6.40;1.77;;;;;;;22.28;45.55;100329.78;4801149;29;21501;-63
2023/07/21 20:12:16;;;;;;;13.75;2.25;;;;;;;22.25;45.55;100330.25;4812659;29;20212;-64
2023/07/21 20:14:54;;;;;;;3.92;1.65;;;;;;;22.22;46.00;100328.84;4809827;29;20252;-67
2023/07/21 20:17:38;;;;;;;6.97;2.00;;;;;;;22.20;46.02;100330.09;4810835;29;20212;-64
2023/07/21 20:20:25;;;;;;;6.90;1.83;;;;;;;22.19;46.17;100331.97;4812803;29;20221;-62
2023/07/21 20:37:55;;;;;;;3.57;1.80;;;;;;;22.19;46.41;100355.47;4724827;30;20231;-63
2023/07/21 20:41:26;;;;;;;7.43;1.80;;;;;;;22.11;46.58;100360.13;4809651;29;20227;-64
2023/07/21 20:44:40;;;;;;;5.17;1.60;;;;;;;22.09;46.75;100370.31;4811260;29;20219;-64
2023/07/21 20:47:21;;;;;;;4.60;1.80;;;;;;;22.06;47.06;100365.38;4796544;29;20240;-64
2023/07/21 20:49:50;;;;;;;5.00;1.73;;;;;;;22.06;47.03;100378.88;4812979;29;20269;-64
2023/07/21 20:52:26;;;;;;;4.13;1.90;;;;;;;22.05;47.12;100379.09;4812723;29;20219;-63
2023/07/21 20:55:16;;;;;;;3.20;1.83;;;;;;;22.02;47.05;100383.06;4813317;29;21249;-64
2023/07/21 20:57:45;;;;;;;7.10;1.90;;;;;;;21.96;47.53;100381.25;4811271;29;20276;-63
2023/07/21 21:00:17;;;;;;;5.37;2.10;;;;;;;21.98;47.29;100389.16;4803318;29;20662;-63
2023/07/21 21:02:53;;;;;;;6.37;1.90;;;;;;;21.91;47.75;100393.75;4810702;29;20331;-63
2023/07/21 21:05:28;;;;;;;5.93;2.03;;;;;;;21.93;47.58;100397.88;4811990;29;20226;-63
2023/07/21 21:07:57;;;;;;;9.30;2.43;;;;;;;21.85;47.87;100398.19;4814834;29;20231;-64
2023/07/21 21:10:55;;;;;;;3.87;2.00;;;;;;;21.75;48.46;100393.28;4793486;29;20234;-63
2023/07/21 21:13:36;;;;;;;7.93;2.17;;;;;;;21.71;48.78;100404.78;4813617;29;20220;-63
2023/07/21 21:16:07;;;;;;;5.37;1.70;;;;;;;21.61;48.92;100404.44;4812924;29;20715;-63
2023/07/21 21:18:36;;;;;;;2.77;1.90;;;;;;;21.54;49.41;100409.09;4815092;29;20208;-62
2023/07/21 21:21:08;;;;;;;3.30;2.00;;;;;;;21.50;49.58;100410.56;4812282;29;20251;-63
2023/07/21 21:23:50;;;;;;;4.07;2.00;;;;;;;21.48;49.46;100410.78;4813071;29;20220;-63
2023/07/21 21:26:31;;;;;;;5.23;1.77;;;;;;;21.39;49.39;100410.22;4815617;29;20235;-62
2023/07/21 21:32:27;;;;;;;5.13;1.90;;;;;;;21.35;49.79;100411.72;4782033;29;20227;-64
2023/07/21 21:35:28;;;;;;;5.30;1.83;;;;;;;21.30;49.78;100418.81;4809345;29;20275;-64
2023/07/21 21:38:12;;;;;;;4.30;1.90;;;;;;;21.24;50.38;100412.44;4813042;29;20208;-64
2023/07/21 21:41:19;;;;;;;5.13;1.93;;;;;;;21.23;50.32;100410.78;4758586;30;20933;-64
2023/07/21 21:44:23;;;;;;;6.30;2.43;;;;;;;21.17;50.56;100410.78;4759654;30;20916;-64
